createdAt,value
2023-03-22T00:01:26.478Z,31.30
2023-03-22T00:03:54.194Z,27.50
2023-03-22T00:06:27.460Z,31.95
2023-03-22T00:08:56.550Z,29.45
2023-03-22T00:11:24.499Z,30.45
2023-03-22T00:13:52.497Z,29.45
2023-03-22T00:16:21.216Z,31.05
2023-03-22T00:18:54.145Z,30.13
2023-03-22T00:21:23.465Z,31.50
2023-03-22T00:23:51.778Z,32.95
2023-03-22T00:26:20.913Z,31.67
2023-03-22T00:28:49.646Z,32.25
2023-03-22T00:31:22.153Z,34.45
2023-03-22T00:33:50.256Z,33.58
2023-03-22T00:36:17.847Z,33.38
2023-03-22T00:38:47.913Z,31.40
2023-03-22T00:41:17.735Z,31.48
2023-03-22T00:43:52.063Z,32.08
2023-03-22T00:46:21.222Z,28.45
2023-03-22T00:48:49.120Z,28.38
2023-03-22T00:51:17.274Z,30.35
2023-03-22T00:53:45.922Z,27.40
2023-03-22T00:56:13.612Z,28.30
2023-03-22T00:58:41.863Z,25.85
2023-03-22T01:01:11.373Z,29.55
2023-03-22T01:03:40.443Z,26.92
2023-03-22T01:06:09.427Z,27.60
2023-03-22T01:08:37.194Z,27.23
2023-03-22T01:11:07.123Z,26.33
2023-03-22T01:13:36.472Z,27.50
2023-03-22T01:16:04.789Z,26.95
2023-03-22T01:18:34.804Z,28.23
2023-03-22T01:21:02.647Z,27.45
2023-03-22T01:23:30.785Z,25.23
2023-03-22T01:25:58.343Z,27.05
2023-03-22T01:28:27.297Z,28.65
2023-03-22T01:30:56.228Z,24.42
2023-03-22T01:33:23.988Z,27.48
2023-03-22T01:35:53.736Z,26.23
2023-03-22T01:38:21.696Z,28.00
2023-03-22T01:40:50.784Z,29.90
2023-03-22T01:43:19.472Z,26.85
2023-03-22T01:45:49.623Z,25.27
2023-03-22T01:48:26.431Z,24.88
2023-03-22T01:51:00.899Z,24.23
2023-03-22T01:53:30.623Z,25.58
2023-03-22T01:55:58.838Z,27.08
2023-03-22T01:58:26.797Z,28.70
2023-03-22T02:00:55.054Z,33.42
2023-03-22T02:03:32.506Z,36.05
2023-03-22T02:06:01.678Z,26.70
2023-03-22T02:08:32.397Z,24.48
2023-03-22T02:11:03.609Z,25.60
2023-03-22T02:13:42.493Z,32.08
2023-03-22T02:16:32.774Z,26.23
2023-03-22T02:19:26.531Z,29.58
2023-03-22T02:22:19.259Z,28.33
2023-03-22T02:25:33.545Z,26.63
2023-03-22T02:28:29.202Z,27.40
2023-03-22T02:31:14.286Z,25.98
2023-03-22T02:34:08.398Z,28.83
2023-03-22T02:37:21.746Z,24.63
2023-03-22T02:39:54.607Z,26.17
2023-03-22T02:42:42.487Z,27.05
2023-03-22T02:45:16.673Z,26.75
2023-03-22T02:47:53.054Z,26.45
2023-03-22T02:50:25.387Z,27.77
2023-03-22T02:52:59.561Z,26.90
2023-03-22T02:55:32.880Z,26.67
2023-03-22T02:58:06.755Z,25.95
2023-03-22T03:00:36.546Z,28.23
2023-03-22T03:03:08.660Z,31.02
2023-03-22T03:05:38.120Z,29.65
2023-03-22T03:08:07.092Z,27.08
2023-03-22T03:10:37.130Z,29.02
2023-03-22T03:13:05.423Z,27.55
2023-03-22T03:15:33.596Z,28.67
2023-03-22T03:18:17.438Z,40.50
2023-03-22T03:20:56.446Z,76.10
2023-03-22T03:23:32.567Z,53.28
2023-03-22T03:26:07.980Z,59.67
2023-03-22T03:28:43.866Z,52.53
2023-03-22T03:31:20.594Z,51.95
2023-03-22T03:33:56.769Z,54.92
2023-03-22T03:36:26.756Z,43.50
2023-03-22T03:38:57.188Z,32.30
2023-03-22T03:41:30.305Z,31.92
2023-03-22T03:43:59.411Z,30.40
2023-03-22T03:46:27.845Z,31.20
2023-03-22T03:48:57.490Z,32.80
2023-03-22T03:51:27.580Z,35.25
2023-03-22T03:53:55.424Z,31.67
2023-03-22T03:56:22.964Z,32.28
2023-03-22T03:58:52.516Z,26.50
2023-03-22T04:01:20.713Z,30.33
2023-03-22T04:03:48.963Z,28.77
2023-03-22T04:06:16.886Z,27.70
2023-03-22T04:08:44.564Z,27.92
2023-03-22T04:11:14.733Z,28.80
2023-03-22T04:13:43.059Z,28.10
2023-03-22T04:16:12.385Z,29.45
2023-03-22T04:18:41.958Z,28.63
2023-03-22T04:21:09.835Z,27.67
2023-03-22T04:23:38.005Z,27.25
2023-03-22T04:26:05.812Z,27.90
2023-03-22T04:28:33.604Z,29.55
2023-03-22T04:31:03.224Z,28.90
2023-03-22T04:33:35.537Z,30.50
2023-03-22T04:36:04.603Z,32.75
2023-03-22T04:38:33.938Z,29.67
2023-03-22T04:41:03.723Z,30.08
2023-03-22T04:43:38.895Z,29.52
2023-03-22T04:46:07.912Z,29.63
2023-03-22T04:48:37.147Z,28.13
2023-03-22T04:51:07.470Z,30.00
2023-03-22T04:53:36.573Z,30.83
2023-03-22T04:56:06.651Z,30.83
2023-03-22T04:58:37.211Z,32.83
2023-03-22T05:01:08.596Z,35.35
2023-03-22T05:03:38.896Z,30.48
2023-03-22T05:06:09.286Z,30.45
2023-03-22T05:08:42.054Z,30.83
2023-03-22T05:11:13.368Z,30.27
2023-03-22T05:13:41.013Z,30.77
2023-03-22T05:16:10.969Z,34.03
2023-03-22T05:18:40.175Z,37.20
2023-03-22T05:21:12.650Z,37.20
2023-03-22T05:23:40.629Z,34.13
2023-03-22T05:26:08.372Z,36.13
2023-03-22T05:28:36.957Z,38.42
2023-03-22T05:31:05.534Z,36.08
2023-03-22T05:33:35.210Z,39.33
2023-03-22T05:36:04.475Z,36.03
2023-03-22T05:38:32.172Z,33.97
2023-03-22T05:41:00.045Z,36.65
2023-03-22T05:43:28.358Z,35.85
2023-03-22T05:45:56.052Z,34.03
2023-03-22T05:48:24.179Z,31.55
2023-03-22T05:50:51.870Z,31.30
2023-03-22T05:53:25.164Z,29.33
2023-03-22T05:55:53.013Z,27.60
2023-03-22T05:58:23.686Z,25.25
2023-03-22T06:00:51.273Z,26.13
2023-03-22T06:03:19.604Z,26.15
2023-03-22T06:05:47.436Z,26.42
2023-03-22T06:08:14.973Z,25.38
2023-03-22T06:10:44.121Z,26.35
2023-03-22T06:13:12.289Z,24.23
2023-03-22T06:15:41.856Z,27.17
2023-03-22T06:18:09.668Z,30.95
2023-03-22T06:20:37.847Z,25.45
2023-03-22T06:23:05.682Z,23.35
2023-03-22T06:25:33.534Z,22.35
2023-03-22T06:28:02.979Z,22.35
2023-03-22T06:30:30.986Z,22.13
2023-03-22T06:33:04.988Z,21.02
2023-03-22T06:35:33.045Z,19.60
2023-03-22T06:38:01.132Z,19.75
2023-03-22T06:40:28.842Z,21.70
2023-03-22T06:42:56.648Z,20.60
2023-03-22T06:45:25.648Z,18.70
2023-03-22T06:47:53.517Z,21.48
2023-03-22T06:50:21.237Z,25.13
2023-03-22T06:52:49.489Z,26.50
2023-03-22T06:55:17.430Z,24.65
2023-03-22T06:57:45.293Z,22.90
2023-03-22T07:00:14.284Z,23.80
2023-03-22T07:02:50.919Z,24.85
2023-03-22T07:05:21.063Z,21.52
2023-03-22T07:07:48.631Z,21.30
2023-03-22T07:10:17.075Z,22.13
2023-03-22T07:12:45.521Z,21.15
2023-03-22T07:15:13.281Z,20.13
2023-03-22T07:17:41.579Z,22.88
2023-03-22T07:20:11.619Z,22.55
2023-03-22T07:22:39.330Z,21.95
2023-03-22T07:25:08.701Z,22.83
2023-03-22T07:27:52.968Z,25.23
2023-03-22T07:30:20.956Z,24.77
2023-03-22T07:32:55.462Z,24.02
2023-03-22T07:35:26.776Z,22.00
2023-03-22T07:37:54.677Z,23.65
2023-03-22T07:40:22.561Z,23.98
2023-03-22T07:42:50.884Z,23.25
2023-03-22T07:45:19.549Z,25.77
2023-03-22T07:47:47.857Z,27.70
2023-03-22T07:50:16.499Z,26.02
2023-03-22T07:52:45.855Z,28.08
2023-03-22T07:55:14.798Z,25.88
2023-03-22T07:57:43.276Z,26.85
2023-03-22T08:00:11.848Z,29.50
2023-03-22T08:02:43.951Z,26.17
2023-03-22T08:05:11.744Z,27.38
2023-03-22T08:07:39.400Z,28.15
2023-03-22T08:10:09.724Z,25.55
2023-03-22T08:12:38.160Z,27.35
2023-03-22T08:15:09.752Z,27.02
2023-03-22T08:17:37.816Z,30.60
2023-03-22T08:20:07.041Z,25.17
2023-03-22T08:22:34.969Z,26.48
2023-03-22T08:25:02.911Z,27.10
2023-03-22T08:27:32.575Z,26.55
2023-03-22T08:30:01.075Z,25.10
2023-03-22T08:32:31.028Z,23.35
2023-03-22T08:34:59.411Z,23.45
2023-03-22T08:37:27.154Z,22.92
2023-03-22T08:39:54.942Z,23.77
2023-03-22T08:42:22.500Z,23.85
2023-03-22T08:44:51.433Z,23.77
2023-03-22T08:47:19.468Z,24.83
2023-03-22T08:49:47.026Z,23.15
2023-03-22T08:52:14.589Z,23.38
2023-03-22T08:54:42.803Z,23.40
2023-03-22T08:57:13.230Z,24.27
2023-03-22T08:59:41.857Z,22.13
2023-03-22T09:02:11.156Z,24.60
2023-03-22T09:04:40.126Z,22.55
2023-03-22T09:07:09.163Z,20.48
2023-03-22T09:09:37.599Z,21.88
2023-03-22T09:12:05.785Z,22.45
2023-03-22T09:14:33.428Z,22.10
2023-03-22T09:17:02.580Z,20.48
2023-03-22T09:19:32.059Z,21.25
2023-03-22T09:21:59.727Z,20.80
2023-03-22T09:24:27.731Z,20.73
2023-03-22T09:26:55.347Z,19.88
2023-03-22T09:29:24.682Z,21.20
2023-03-22T09:31:53.547Z,22.30
2023-03-22T09:34:23.209Z,20.63
2023-03-22T09:36:52.902Z,22.13
2023-03-22T09:39:21.003Z,18.25
2023-03-22T09:41:51.758Z,19.92
2023-03-22T09:44:27.640Z,18.83
2023-03-22T09:46:57.579Z,18.55
2023-03-22T09:49:29.434Z,17.63
2023-03-22T09:51:59.065Z,17.88
2023-03-22T09:54:33.284Z,17.77
2023-03-22T09:57:07.455Z,18.05
2023-03-22T09:59:42.827Z,17.45
2023-03-22T10:02:31.695Z,17.20
2023-03-22T10:05:09.578Z,17.92
2023-03-22T10:07:57.990Z,16.20
2023-03-22T10:10:26.886Z,17.30
2023-03-22T10:13:00.668Z,15.80
2023-03-22T10:15:32.482Z,17.48
2023-03-22T10:18:02.868Z,18.27
2023-03-22T10:20:38.214Z,18.60
2023-03-22T10:23:12.862Z,17.60
2023-03-22T10:25:44.351Z,16.52
2023-03-22T10:28:21.500Z,17.83
2023-03-22T10:30:54.043Z,17.30
2023-03-22T10:33:31.563Z,17.73
2023-03-22T10:36:00.764Z,16.98
2023-03-22T10:38:32.240Z,16.30
2023-03-22T10:41:01.435Z,16.13
2023-03-22T10:43:33.178Z,16.00
2023-03-22T10:46:03.496Z,15.77
2023-03-22T10:48:35.283Z,17.52
2023-03-22T10:51:03.935Z,17.70
2023-03-22T10:53:38.466Z,15.55
2023-03-22T10:56:12.725Z,16.85
2023-03-22T10:58:40.566Z,16.52
2023-03-22T11:01:10.932Z,16.27
2023-03-22T11:03:41.488Z,15.38
2023-03-22T11:06:16.551Z,16.85
2023-03-22T11:08:49.029Z,16.42
2023-03-22T11:11:21.045Z,13.95
2023-03-22T11:13:53.092Z,15.07
2023-03-22T11:16:22.814Z,15.07
2023-03-22T11:18:50.486Z,14.60
2023-03-22T11:21:21.237Z,14.60
2023-03-22T11:23:57.433Z,13.65
2023-03-22T11:26:29.353Z,16.92
2023-03-22T11:29:08.285Z,19.02
2023-03-22T11:31:59.187Z,14.80
2023-03-22T11:34:29.561Z,13.20
2023-03-22T11:37:00.778Z,16.13
2023-03-22T11:39:30.388Z,13.25
2023-03-22T11:41:59.422Z,13.90
2023-03-22T11:44:31.979Z,15.95
2023-03-22T11:47:02.241Z,14.32
2023-03-22T11:49:39.586Z,15.95
2023-03-22T11:52:11.562Z,15.27
2023-03-22T11:54:42.964Z,14.52
2023-03-22T11:57:14.986Z,16.27
2023-03-22T11:59:47.732Z,14.45
2023-03-22T12:02:22.734Z,15.48
2023-03-22T12:04:54.197Z,14.20
2023-03-22T12:07:22.416Z,13.30
2023-03-22T12:09:59.126Z,14.75
2023-03-22T12:12:32.015Z,14.80
2023-03-22T12:15:05.086Z,16.58
2023-03-22T12:17:38.219Z,14.65
2023-03-22T12:20:19.833Z,15.35
2023-03-22T12:22:53.020Z,14.90
2023-03-22T12:25:25.669Z,14.75
2023-03-22T12:27:58.593Z,14.70
2023-03-22T12:30:29.486Z,14.10
2023-03-22T12:33:05.791Z,14.10
2023-03-22T12:35:39.002Z,15.85
2023-03-22T12:38:19.174Z,14.35
2023-03-22T12:40:50.048Z,15.23
2023-03-22T12:43:25.827Z,13.15
2023-03-22T12:45:59.226Z,15.07
2023-03-22T12:48:36.454Z,14.93
2023-03-22T12:51:06.852Z,14.57
2023-03-22T12:53:37.226Z,14.00
2023-03-22T12:56:07.690Z,13.93
2023-03-22T12:58:35.485Z,15.30
2023-03-22T13:01:16.475Z,14.70
2023-03-22T13:03:46.558Z,15.35
2023-03-22T13:06:31.611Z,14.00
2023-03-22T13:09:12.735Z,15.90
2023-03-22T13:11:44.890Z,14.93
2023-03-22T13:17:02.079Z,14.75
2023-03-22T13:19:36.400Z,16.05
2023-03-22T13:22:51.651Z,15.38
2023-03-22T13:25:30.819Z,16.65
2023-03-22T13:28:02.183Z,15.48
2023-03-22T13:30:33.677Z,16.75
2023-03-22T13:33:12.864Z,15.43
2023-03-22T13:35:44.808Z,15.48
2023-03-22T13:38:20.213Z,16.50
2023-03-22T13:40:59.716Z,15.52
2023-03-22T13:43:35.570Z,15.70
2023-03-22T13:46:12.150Z,16.05
2023-03-22T13:48:50.941Z,15.13
2023-03-22T13:51:26.412Z,15.68
2023-03-22T13:53:59.470Z,16.08
2023-03-22T13:56:33.139Z,14.20
2023-03-22T13:59:11.398Z,15.65
2023-03-22T14:01:43.839Z,16.85
2023-03-22T14:04:16.837Z,16.10
2023-03-22T14:06:52.658Z,16.83
2023-03-22T14:09:26.009Z,14.43
2023-03-22T14:12:00.161Z,15.55
2023-03-22T14:14:32.602Z,16.85
2023-03-22T14:17:05.030Z,16.05
